»·PEaware :: DAL965 KLAS-KPMD

DAL965 :: KLAS-KPMD

FLIGHT INFORMATION

Flight Status: Arrived
Operator:
Delta Air Lines
More flights by this operator :: More flights under this callsign
Pilot: Alan J. (5709)
Aircraft: BOEING 737-800
(B738)
More flights by this aircraft type
Origin: KLAS Harry Reid Intl
United States
Destination: KPMD Palmdale AF Plant 42
United States
More flights between these airports :: More routes between these airports
Route: RADYR2 HEC PMD
File this flight plan on PilotEdge
Remarks:
Altitude:
(Current/Filed)
22,000ft
Speed:
(Current/Filed)
420kts
Departed: 22-Jan-22 02:26 PM
Arrived: 22-Jan-22 03:06 PM
Distance/Time
Traveled:
168nm/0:40
Distance/Time
To Go:
Arrived

Flight Plot

Page will automatically refresh every two minutes.

Flight plan parsing failed; only flown route is shown


Map Options




Map Legend


Flown Route
Filed Route
Departure Airport
Arrival Airport
Navaid (VOR, NDB)
Fix

Horizontal Profiles

Position Reports

Time Latitude Longitude Heading Altitude Ground
Speed
22-Jan-22 14:01 36.080301 -115.138971 315 2071ft 0kts
22-Jan-22 14:02 36.080301 -115.138971 315 2071ft 0kts
22-Jan-22 14:03 36.080301 -115.138971 315 2071ft 0kts
22-Jan-22 14:04 36.080301 -115.138971 315 2071ft 0kts
22-Jan-22 14:05 36.080301 -115.138971 315 2071ft 0kts
22-Jan-22 14:06 36.080301 -115.138971 315 2071ft 0kts
22-Jan-22 14:07 36.080301 -115.138971 315 2071ft 0kts
22-Jan-22 14:08 36.080301 -115.138972 315 2071ft 0kts
22-Jan-22 14:09 36.080301 -115.138972 315 2071ft 0kts
22-Jan-22 14:10 36.080301 -115.138972 315 2071ft 0kts
22-Jan-22 14:11 36.080133 -115.138763 315 2071ft 2kts
22-Jan-22 14:12 36.079990 -115.138161 246 2069ft 2kts
22-Jan-22 14:13 36.080114 -115.137958 223 2069ft 0kts
22-Jan-22 14:14 36.080114 -115.137958 223 2069ft 0kts
22-Jan-22 14:15 36.080114 -115.137958 223 2069ft 0kts
22-Jan-22 14:16 36.080114 -115.137958 223 2069ft 0kts
22-Jan-22 14:17 36.080086 -115.137990 223 2069ft 2kts
22-Jan-22 14:18 36.078439 -115.140022 227 2079ft 12kts
22-Jan-22 14:19 36.077623 -115.144783 275 2096ft 20kts
22-Jan-22 14:20 36.077984 -115.150182 273 2114ft 15kts
22-Jan-22 14:21 36.078034 -115.154576 269 2131ft 16kts
22-Jan-22 14:22 36.077921 -115.161068 235 2154ft 14kts
22-Jan-22 14:23 36.077453 -115.161282 180 2156ft 0kts
22-Jan-22 14:24 36.076393 -115.160432 90 2156ft 9kts
22-Jan-22 14:25 36.076459 -115.126743 84 2440ft 190kts
22-Jan-22 14:26 36.073726 -115.052527 99 5005ft 251kts
22-Jan-22 14:27 36.057519 -114.963305 99 7755ft 266kts
22-Jan-22 14:28 36.016522 -114.893068 159 10755ft 283kts
22-Jan-22 14:29 35.937971 -114.932330 220 12792ft 357kts
22-Jan-22 14:30 35.876390 -115.034360 256 15059ft 393kts
22-Jan-22 14:31 35.855196 -115.169224 262 17492ft 412kts
22-Jan-22 14:32 35.799819 -115.292200 207 19475ft 434kts
22-Jan-22 14:33 35.687146 -115.350373 197 21081ft 449kts
22-Jan-22 14:34 35.577468 -115.433694 225 22041ft 487kts
22-Jan-22 14:35 35.483499 -115.558024 228 22183ft 503kts
22-Jan-22 14:36 35.390647 -115.682476 227 22155ft 504kts
22-Jan-22 14:37 35.296092 -115.808076 226 22141ft 502kts
22-Jan-22 14:38 35.201226 -115.932164 227 22141ft 500kts
22-Jan-22 14:39 35.106337 -116.056998 227 22161ft 506kts
22-Jan-22 14:40 35.011359 -116.181473 228 22178ft 500kts
22-Jan-22 14:41 34.916732 -116.305433 228 22178ft 501kts
22-Jan-22 14:42 34.827138 -116.425651 236 21231ft 456kts
22-Jan-22 14:43 34.788019 -116.562429 268 19147ft 420kts
22-Jan-22 14:44 34.772587 -116.700228 267 17023ft 403kts
22-Jan-22 14:45 34.758109 -116.832745 266 14904ft 389kts
22-Jan-22 14:46 34.744363 -116.960314 266 14009ft 383kts
22-Jan-22 14:47 34.730832 -117.086960 267 13801ft 357kts
22-Jan-22 14:48 34.719031 -117.197636 267 13186ft 320kts
22-Jan-22 14:49 34.707981 -117.303483 267 11955ft 311kts
22-Jan-22 14:50 34.697473 -117.404809 266 10268ft 296kts
22-Jan-22 14:51 34.687572 -117.501155 266 8636ft 281kts
22-Jan-22 14:52 34.678178 -117.593564 266 7010ft 270kts
22-Jan-22 14:53 34.668970 -117.684327 265 6999ft 272kts
22-Jan-22 14:54 34.659890 -117.775508 265 7000ft 273kts
22-Jan-22 14:55 34.650767 -117.866871 265 7000ft 272kts
22-Jan-22 14:56 34.622141 -117.950031 232 6998ft 278kts
22-Jan-22 14:57 34.573186 -118.022209 231 6999ft 277kts
22-Jan-22 14:58 34.527159 -118.090579 231 7002ft 237kts
22-Jan-22 14:59 34.490212 -118.148252 253 7158ft 208kts
22-Jan-22 15:00 34.511994 -118.187863 8 6593ft 157kts
22-Jan-22 15:01 34.552941 -118.172836 21 5637ft 148kts
22-Jan-22 15:02 34.583136 -118.143421 47 4127ft 135kts
22-Jan-22 15:03 34.605179 -118.109500 48 2964ft 119kts
22-Jan-22 15:04 34.626051 -118.077618 51 2517ft 83kts
22-Jan-22 15:05 34.629935 -118.074182 322 2509ft 9kts
22-Jan-22 15:06 34.628362 -118.078242 231 2512ft 23kts
22-Jan-22 15:07 34.623827 -118.085243 232 2528ft 26kts
22-Jan-22 15:08 34.621496 -118.090028 272 2539ft 12kts
22-Jan-22 15:09 34.621793 -118.092430 297 2540ft 0kts
22-Jan-22 15:10 34.621793 -118.092430 297 2540ft 0kts

Navigation Log

Ident Type
Flight plan parsing failed, navigation log unavailable